sensor_id;sensor_type;location;lat;lon;timestamp;P1;durP1;ratioP1;P2;durP2;ratioP2
37407;SDS011;24866;50.248;8.252;2022-10-13T00:00:28;12.90;;;9.05;;
37407;SDS011;24866;50.248;8.252;2022-10-13T00:02:58;14.68;;;8.70;;
37407;SDS011;24866;50.248;8.252;2022-10-13T00:05:29;12.80;;;8.35;;
37407;SDS011;24866;50.248;8.252;2022-10-13T00:07:59;15.25;;;9.60;;
37407;SDS011;24866;50.248;8.252;2022-10-13T00:10:34;15.70;;;9.93;;
37407;SDS011;24866;50.248;8.252;2022-10-13T00:15:38;18.23;;;10.48;;
37407;SDS011;24866;50.248;8.252;2022-10-13T00:18:08;17.90;;;9.65;;
37407;SDS011;24866;50.248;8.252;2022-10-13T00:20:40;18.98;;;10.35;;
37407;SDS011;24866;50.248;8.252;2022-10-13T00:23:10;16.83;;;10.33;;
37407;SDS011;24866;50.248;8.252;2022-10-13T00:25:41;13.07;;;8.23;;
37407;SDS011;24866;50.248;8.252;2022-10-13T00:28:12;13.95;;;8.50;;
37407;SDS011;24866;50.248;8.252;2022-10-13T00:30:44;13.82;;;8.77;;
37407;SDS011;24866;50.248;8.252;2022-10-13T00:35:46;16.23;;;8.18;;
37407;SDS011;24866;50.248;8.252;2022-10-13T00:38:17;15.20;;;8.57;;
37407;SDS011;24866;50.248;8.252;2022-10-13T00:40:49;13.23;;;8.47;;
37407;SDS011;24866;50.248;8.252;2022-10-13T00:43:22;14.73;;;9.07;;
37407;SDS011;24866;50.248;8.252;2022-10-13T00:45:55;13.70;;;8.93;;
37407;SDS011;24866;50.248;8.252;2022-10-13T00:48:26;15.13;;;8.32;;
37407;SDS011;24866;50.248;8.252;2022-10-13T00:50:58;15.57;;;9.43;;
37407;SDS011;24866;50.248;8.252;2022-10-13T00:53:29;16.55;;;7.78;;
37407;SDS011;24866;50.248;8.252;2022-10-13T00:56:02;16.08;;;8.48;;
37407;SDS011;24866;50.248;8.252;2022-10-13T00:58:34;13.63;;;8.30;;
37407;SDS011;24866;50.248;8.252;2022-10-13T01:01:06;13.40;;;8.65;;
37407;SDS011;24866;50.248;8.252;2022-10-13T01:03:37;12.90;;;8.27;;
37407;SDS011;24866;50.248;8.252;2022-10-13T01:06:07;13.32;;;8.55;;
37407;SDS011;24866;50.248;8.252;2022-10-13T01:08:38;13.40;;;8.20;;
37407;SDS011;24866;50.248;8.252;2022-10-13T01:14:15;13.70;;;8.00;;
37407;SDS011;24866;50.248;8.252;2022-10-13T01:16:52;15.00;;;8.00;;
37407;SDS011;24866;50.248;8.252;2022-10-13T01:19:36;14.68;;;8.80;;
37407;SDS011;24866;50.248;8.252;2022-10-13T01:22:31;14.55;;;8.25;;
37407;SDS011;24866;50.248;8.252;2022-10-13T01:25:19;13.85;;;8.50;;
37407;SDS011;24866;50.248;8.252;2022-10-13T01:28:14;22.52;;;10.18;;
37407;SDS011;24866;50.248;8.252;2022-10-13T01:31:01;12.45;;;8.52;;
37407;SDS011;24866;50.248;8.252;2022-10-13T01:33:37;12.38;;;8.43;;
37407;SDS011;24866;50.248;8.252;2022-10-13T01:36:14;14.93;;;8.50;;
37407;SDS011;24866;50.248;8.252;2022-10-13T01:38:52;14.60;;;8.98;;
37407;SDS011;24866;50.248;8.252;2022-10-13T01:41:31;13.85;;;8.27;;
37407;SDS011;24866;50.248;8.252;2022-10-13T01:44:05;15.02;;;8.13;;
37407;SDS011;24866;50.248;8.252;2022-10-13T01:46:44;12.57;;;8.07;;
37407;SDS011;24866;50.248;8.252;2022-10-13T01:49:17;12.45;;;7.82;;
37407;SDS011;24866;50.248;8.252;2022-10-13T01:51:49;15.07;;;9.55;;
37407;SDS011;24866;50.248;8.252;2022-10-13T01:54:20;13.75;;;8.52;;
37407;SDS011;24866;50.248;8.252;2022-10-13T01:56:53;13.43;;;8.25;;
37407;SDS011;24866;50.248;8.252;2022-10-13T01:59:23;13.52;;;8.35;;
37407;SDS011;24866;50.248;8.252;2022-10-13T02:01:58;17.05;;;8.73;;
37407;SDS011;24866;50.248;8.252;2022-10-13T02:04:36;14.52;;;8.43;;
37407;SDS011;24866;50.248;8.252;2022-10-13T02:07:16;14.75;;;8.48;;
37407;SDS011;24866;50.248;8.252;2022-10-13T02:09:51;14.30;;;8.77;;
37407;SDS011;24866;50.248;8.252;2022-10-13T02:12:27;11.93;;;7.68;;
37407;SDS011;24866;50.248;8.252;2022-10-13T02:15:00;13.48;;;8.43;;
37407;SDS011;24866;50.248;8.252;2022-10-13T02:17:33;13.13;;;8.38;;
37407;SDS011;24866;50.248;8.252;2022-10-13T02:20:04;12.60;;;7.22;;
37407;SDS011;24866;50.248;8.252;2022-10-13T02:22:40;15.60;;;8.18;;
37407;SDS011;24866;50.248;8.252;2022-10-13T02:25:13;17.17;;;8.02;;
37407;SDS011;24866;50.248;8.252;2022-10-13T02:27:43;11.52;;;8.27;;
37407;SDS011;24866;50.248;8.252;2022-10-13T02:30:18;14.55;;;8.48;;
37407;SDS011;24866;50.248;8.252;2022-10-13T02:32:51;13.32;;;7.40;;
37407;SDS011;24866;50.248;8.252;2022-10-13T02:35:22;12.88;;;8.55;;
37407;SDS011;24866;50.248;8.252;2022-10-13T02:37:52;14.52;;;7.85;;
37407;SDS011;24866;50.248;8.252;2022-10-13T02:40:21;14.68;;;9.02;;
37407;SDS011;24866;50.248;8.252;2022-10-13T02:42:51;16.35;;;8.32;;
37407;SDS011;24866;50.248;8.252;2022-10-13T02:45:21;14.55;;;9.00;;
37407;SDS011;24866;50.248;8.252;2022-10-13T02:47:53;13.60;;;8.20;;
37407;SDS011;24866;50.248;8.252;2022-10-13T02:50:23;12.57;;;8.70;;
37407;SDS011;24866;50.248;8.252;2022-10-13T02:52:52;16.63;;;9.52;;
37407;SDS011;24866;50.248;8.252;2022-10-13T02:55:22;16.27;;;9.18;;
37407;SDS011;24866;50.248;8.252;2022-10-13T02:57:52;16.23;;;8.73;;
37407;SDS011;24866;50.248;8.252;2022-10-13T03:00:22;13.95;;;8.50;;
37407;SDS011;24866;50.248;8.252;2022-10-13T03:02:54;15.18;;;8.73;;
37407;SDS011;24866;50.248;8.252;2022-10-13T03:05:24;14.55;;;8.93;;
37407;SDS011;24866;50.248;8.252;2022-10-13T03:07:54;15.10;;;8.43;;
37407;SDS011;24866;50.248;8.252;2022-10-13T03:10:24;14.68;;;8.23;;
37407;SDS011;24866;50.248;8.252;2022-10-13T03:13:08;17.02;;;7.95;;
37407;SDS011;24866;50.248;8.252;2022-10-13T03:15:38;13.73;;;7.97;;
37407;SDS011;24866;50.248;8.252;2022-10-13T03:18:09;14.57;;;8.02;;
37407;SDS011;24866;50.248;8.252;2022-10-13T03:20:39;12.45;;;7.65;;
37407;SDS011;24866;50.248;8.252;2022-10-13T03:23:09;13.25;;;8.18;;
37407;SDS011;24866;50.248;8.252;2022-10-13T03:25:39;18.42;;;9.85;;
37407;SDS011;24866;50.248;8.252;2022-10-13T03:28:09;19.52;;;9.90;;
37407;SDS011;24866;50.248;8.252;2022-10-13T03:30:39;19.98;;;11.27;;
37407;SDS011;24866;50.248;8.252;2022-10-13T03:33:10;18.23;;;11.20;;
37407;SDS011;24866;50.248;8.252;2022-10-13T03:35:40;19.80;;;11.52;;
37407;SDS011;24866;50.248;8.252;2022-10-13T03:38:10;19.75;;;11.50;;
37407;SDS011;24866;50.248;8.252;2022-10-13T03:40:40;20.20;;;11.25;;
37407;SDS011;24866;50.248;8.252;2022-10-13T03:43:10;18.80;;;10.45;;
37407;SDS011;24866;50.248;8.252;2022-10-13T03:45:40;18.40;;;10.40;;
37407;SDS011;24866;50.248;8.252;2022-10-13T03:48:11;13.82;;;8.43;;
37407;SDS011;24866;50.248;8.252;2022-10-13T03:50:41;17.23;;;9.55;;
37407;SDS011;24866;50.248;8.252;2022-10-13T03:53:11;12.05;;;7.93;;
37407;SDS011;24866;50.248;8.252;2022-10-13T03:55:40;13.68;;;7.72;;
37407;SDS011;24866;50.248;8.252;2022-10-13T03:58:10;14.00;;;8.45;;
37407;SDS011;24866;50.248;8.252;2022-10-13T04:00:40;14.40;;;8.77;;
37407;SDS011;24866;50.248;8.252;2022-10-13T04:03:12;16.88;;;10.70;;
37407;SDS011;24866;50.248;8.252;2022-10-13T04:05:42;18.25;;;8.80;;
37407;SDS011;24866;50.248;8.252;2022-10-13T04:08:12;12.90;;;8.00;;
37407;SDS011;24866;50.248;8.252;2022-10-13T04:10:42;10.65;;;6.88;;
37407;SDS011;24866;50.248;8.252;2022-10-13T04:13:12;15.77;;;9.32;;
37407;SDS011;24866;50.248;8.252;2022-10-13T04:15:42;14.20;;;8.70;;
37407;SDS011;24866;50.248;8.252;2022-10-13T04:18:13;15.43;;;9.70;;
37407;SDS011;24866;50.248;8.252;2022-10-13T04:20:43;14.32;;;8.82;;
37407;SDS011;24866;50.248;8.252;2022-10-13T04:23:13;12.80;;;8.27;;
37407;SDS011;24866;50.248;8.252;2022-10-13T04:25:43;16.38;;;9.00;;
37407;SDS011;24866;50.248;8.252;2022-10-13T04:28:13;14.90;;;9.38;;
37407;SDS011;24866;50.248;8.252;2022-10-13T04:30:43;16.08;;;9.65;;
37407;SDS011;24866;50.248;8.252;2022-10-13T04:33:14;17.02;;;9.10;;
37407;SDS011;24866;50.248;8.252;2022-10-13T04:35:44;17.40;;;10.15;;
37407;SDS011;24866;50.248;8.252;2022-10-13T04:38:14;17.35;;;10.80;;
37407;SDS011;24866;50.248;8.252;2022-10-13T04:40:44;19.00;;;9.77;;
37407;SDS011;24866;50.248;8.252;2022-10-13T04:43:14;16.83;;;10.27;;
37407;SDS011;24866;50.248;8.252;2022-10-13T04:45:44;18.73;;;9.82;;
37407;SDS011;24866;50.248;8.252;2022-10-13T04:48:15;15.63;;;9.70;;
37407;SDS011;24866;50.248;8.252;2022-10-13T04:50:45;18.05;;;10.07;;
37407;SDS011;24866;50.248;8.252;2022-10-13T04:53:15;15.05;;;9.15;;
37407;SDS011;24866;50.248;8.252;2022-10-13T04:55:45;12.77;;;8.57;;
37407;SDS011;24866;50.248;8.252;2022-10-13T04:58:15;16.77;;;9.73;;
37407;SDS011;24866;50.248;8.252;2022-10-13T05:00:44;20.42;;;11.65;;
37407;SDS011;24866;50.248;8.252;2022-10-13T05:03:16;21.95;;;10.70;;
37407;SDS011;24866;50.248;8.252;2022-10-13T05:05:46;18.98;;;11.73;;
37407;SDS011;24866;50.248;8.252;2022-10-13T05:08:16;20.80;;;11.45;;
37407;SDS011;24866;50.248;8.252;2022-10-13T05:10:51;19.70;;;10.18;;
37407;SDS011;24866;50.248;8.252;2022-10-13T05:13:22;15.02;;;10.30;;
37407;SDS011;24866;50.248;8.252;2022-10-13T05:15:53;19.02;;;10.73;;
37407;SDS011;24866;50.248;8.252;2022-10-13T05:18:24;17.33;;;10.25;;
37407;SDS011;24866;50.248;8.252;2022-10-13T05:20:54;16.65;;;9.10;;
37407;SDS011;24866;50.248;8.252;2022-10-13T05:23:24;14.93;;;8.82;;
37407;SDS011;24866;50.248;8.252;2022-10-13T05:25:54;13.85;;;9.18;;
37407;SDS011;24866;50.248;8.252;2022-10-13T05:28:24;15.68;;;8.82;;
37407;SDS011;24866;50.248;8.252;2022-10-13T05:30:54;12.05;;;8.10;;
37407;SDS011;24866;50.248;8.252;2022-10-13T05:33:25;14.77;;;7.60;;
37407;SDS011;24866;50.248;8.252;2022-10-13T05:36:02;12.18;;;7.45;;
37407;SDS011;24866;50.248;8.252;2022-10-13T05:38:33;12.93;;;7.93;;
37407;SDS011;24866;50.248;8.252;2022-10-13T05:41:03;13.43;;;9.02;;
37407;SDS011;24866;50.248;8.252;2022-10-13T05:43:34;13.27;;;8.07;;
37407;SDS011;24866;50.248;8.252;2022-10-13T05:46:05;14.98;;;7.93;;
37407;SDS011;24866;50.248;8.252;2022-10-13T05:48:37;15.98;;;8.38;;
37407;SDS011;24866;50.248;8.252;2022-10-13T05:51:08;12.50;;;8.00;;
37407;SDS011;24866;50.248;8.252;2022-10-13T05:53:43;13.52;;;7.50;;
37407;SDS011;24866;50.248;8.252;2022-10-13T05:56:18;13.00;;;8.73;;
37407;SDS011;24866;50.248;8.252;2022-10-13T05:58:52;13.35;;;8.38;;
37407;SDS011;24866;50.248;8.252;2022-10-13T06:01:27;15.18;;;9.52;;
37407;SDS011;24866;50.248;8.252;2022-10-13T06:04:02;18.77;;;9.52;;
37407;SDS011;24866;50.248;8.252;2022-10-13T06:06:36;14.18;;;8.88;;
37407;SDS011;24866;50.248;8.252;2022-10-13T06:09:07;13.98;;;8.57;;
37407;SDS011;24866;50.248;8.252;2022-10-13T06:11:37;13.73;;;8.82;;
37407;SDS011;24866;50.248;8.252;2022-10-13T06:14:06;14.07;;;9.02;;
37407;SDS011;24866;50.248;8.252;2022-10-13T06:16:36;18.05;;;10.32;;
37407;SDS011;24866;50.248;8.252;2022-10-13T06:19:07;28.38;;;13.07;;
37407;SDS011;24866;50.248;8.252;2022-10-13T06:21:38;25.52;;;12.60;;
37407;SDS011;24866;50.248;8.252;2022-10-13T06:24:07;21.90;;;13.13;;
37407;SDS011;24866;50.248;8.252;2022-10-13T06:26:37;20.25;;;11.98;;
37407;SDS011;24866;50.248;8.252;2022-10-13T06:29:07;23.63;;;13.45;;
37407;SDS011;24866;50.248;8.252;2022-10-13T06:31:38;23.17;;;13.00;;
37407;SDS011;24866;50.248;8.252;2022-10-13T06:34:09;23.00;;;12.43;;
37407;SDS011;24866;50.248;8.252;2022-10-13T06:36:39;21.15;;;12.77;;
37407;SDS011;24866;50.248;8.252;2022-10-13T06:39:09;23.45;;;12.60;;
37407;SDS011;24866;50.248;8.252;2022-10-13T06:41:39;23.27;;;12.60;;
37407;SDS011;24866;50.248;8.252;2022-10-13T06:44:09;22.13;;;12.82;;
37407;SDS011;24866;50.248;8.252;2022-10-13T06:46:39;22.67;;;13.70;;
37407;SDS011;24866;50.248;8.252;2022-10-13T06:49:10;21.40;;;13.70;;
37407;SDS011;24866;50.248;8.252;2022-10-13T06:51:40;24.23;;;13.77;;
37407;SDS011;24866;50.248;8.252;2022-10-13T06:54:10;20.70;;;12.82;;
37407;SDS011;24866;50.248;8.252;2022-10-13T06:56:40;21.88;;;13.18;;
37407;SDS011;24866;50.248;8.252;2022-10-13T06:59:10;25.52;;;12.50;;
37407;SDS011;24866;50.248;8.252;2022-10-13T07:01:40;21.52;;;11.70;;
37407;SDS011;24866;50.248;8.252;2022-10-13T07:04:11;23.85;;;13.63;;
37407;SDS011;24866;50.248;8.252;2022-10-13T07:06:41;22.50;;;13.20;;
37407;SDS011;24866;50.248;8.252;2022-10-13T07:09:11;19.75;;;13.38;;
37407;SDS011;24866;50.248;8.252;2022-10-13T07:11:42;21.55;;;13.90;;
37407;SDS011;24866;50.248;8.252;2022-10-13T07:14:13;23.27;;;13.68;;
37407;SDS011;24866;50.248;8.252;2022-10-13T07:16:42;23.70;;;13.82;;
37407;SDS011;24866;50.248;8.252;2022-10-13T07:19:14;26.05;;;13.95;;
37407;SDS011;24866;50.248;8.252;2022-10-13T07:21:44;23.65;;;13.35;;
37407;SDS011;24866;50.248;8.252;2022-10-13T07:24:13;23.70;;;13.40;;
37407;SDS011;24866;50.248;8.252;2022-10-13T07:26:43;24.13;;;13.10;;
37407;SDS011;24866;50.248;8.252;2022-10-13T07:29:13;21.60;;;13.10;;
37407;SDS011;24866;50.248;8.252;2022-10-13T07:31:44;19.45;;;12.82;;
37407;SDS011;24866;50.248;8.252;2022-10-13T07:34:16;20.23;;;11.73;;
37407;SDS011;24866;50.248;8.252;2022-10-13T07:36:46;19.48;;;11.75;;
37407;SDS011;24866;50.248;8.252;2022-10-13T07:39:16;21.80;;;12.05;;
37407;SDS011;24866;50.248;8.252;2022-10-13T07:41:46;19.13;;;11.52;;
37407;SDS011;24866;50.248;8.252;2022-10-13T07:44:16;18.10;;;10.85;;
37407;SDS011;24866;50.248;8.252;2022-10-13T07:46:46;16.83;;;10.68;;
37407;SDS011;24866;50.248;8.252;2022-10-13T07:49:17;13.93;;;10.15;;
37407;SDS011;24866;50.248;8.252;2022-10-13T07:51:47;17.27;;;11.15;;
37407;SDS011;24866;50.248;8.252;2022-10-13T07:54:17;19.38;;;10.38;;
37407;SDS011;24866;50.248;8.252;2022-10-13T07:56:49;16.60;;;10.98;;
37407;SDS011;24866;50.248;8.252;2022-10-13T07:59:20;17.42;;;12.13;;
37407;SDS011;24866;50.248;8.252;2022-10-13T08:01:50;17.45;;;11.52;;
37407;SDS011;24866;50.248;8.252;2022-10-13T08:04:21;16.60;;;11.18;;
37407;SDS011;24866;50.248;8.252;2022-10-13T08:06:52;17.98;;;11.23;;
37407;SDS011;24866;50.248;8.252;2022-10-13T08:09:22;17.20;;;10.73;;
37407;SDS011;24866;50.248;8.252;2022-10-13T08:11:52;20.42;;;10.60;;
37407;SDS011;24866;50.248;8.252;2022-10-13T08:14:22;16.65;;;10.40;;
37407;SDS011;24866;50.248;8.252;2022-10-13T08:16:52;17.77;;;11.82;;
37407;SDS011;24866;50.248;8.252;2022-10-13T08:19:23;18.77;;;10.13;;
37407;SDS011;24866;50.248;8.252;2022-10-13T08:24:26;16.20;;;10.23;;
37407;SDS011;24866;50.248;8.252;2022-10-13T08:26:57;25.33;;;10.73;;
37407;SDS011;24866;50.248;8.252;2022-10-13T08:29:28;16.35;;;10.15;;
37407;SDS011;24866;50.248;8.252;2022-10-13T08:31:58;19.23;;;10.75;;
37407;SDS011;24866;50.248;8.252;2022-10-13T08:34:29;19.55;;;10.70;;
37407;SDS011;24866;50.248;8.252;2022-10-13T08:37:01;17.98;;;9.95;;
37407;SDS011;24866;50.248;8.252;2022-10-13T08:39:31;20.73;;;11.90;;
37407;SDS011;24866;50.248;8.252;2022-10-13T08:42:01;14.48;;;9.50;;
37407;SDS011;24866;50.248;8.252;2022-10-13T08:44:33;16.20;;;10.23;;
37407;SDS011;24866;50.248;8.252;2022-10-13T08:47:07;17.48;;;10.23;;
37407;SDS011;24866;50.248;8.252;2022-10-13T08:49:42;16.30;;;9.85;;
37407;SDS011;24866;50.248;8.252;2022-10-13T08:52:15;14.27;;;10.25;;
37407;SDS011;24866;50.248;8.252;2022-10-13T08:54:48;16.58;;;10.23;;
37407;SDS011;24866;50.248;8.252;2022-10-13T08:57:19;20.70;;;11.60;;
37407;SDS011;24866;50.248;8.252;2022-10-13T08:59:49;28.60;;;11.57;;
37407;SDS011;24866;50.248;8.252;2022-10-13T09:02:22;16.92;;;10.55;;
37407;SDS011;24866;50.248;8.252;2022-10-13T09:04:59;17.52;;;9.82;;
37407;SDS011;24866;50.248;8.252;2022-10-13T09:07:31;19.50;;;10.98;;
37407;SDS011;24866;50.248;8.252;2022-10-13T09:10:05;18.23;;;10.55;;
37407;SDS011;24866;50.248;8.252;2022-10-13T09:12:35;19.90;;;10.88;;
37407;SDS011;24866;50.248;8.252;2022-10-13T09:15:06;23.08;;;11.52;;
37407;SDS011;24866;50.248;8.252;2022-10-13T09:17:38;25.95;;;12.98;;
37407;SDS011;24866;50.248;8.252;2022-10-13T09:20:17;20.92;;;12.32;;
37407;SDS011;24866;50.248;8.252;2022-10-13T09:22:59;19.75;;;11.55;;
37407;SDS011;24866;50.248;8.252;2022-10-13T09:25:32;18.17;;;11.93;;
37407;SDS011;24866;50.248;8.252;2022-10-13T09:28:08;23.60;;;12.88;;
37407;SDS011;24866;50.248;8.252;2022-10-13T09:30:45;23.98;;;13.93;;
37407;SDS011;24866;50.248;8.252;2022-10-13T09:33:22;23.23;;;13.63;;
37407;SDS011;24866;50.248;8.252;2022-10-13T09:36:07;26.15;;;13.52;;
37407;SDS011;24866;50.248;8.252;2022-10-13T09:38:43;22.73;;;13.52;;
37407;SDS011;24866;50.248;8.252;2022-10-13T09:41:32;26.15;;;14.48;;
37407;SDS011;24866;50.248;8.252;2022-10-13T09:44:07;26.35;;;14.88;;
37407;SDS011;24866;50.248;8.252;2022-10-13T09:46:44;24.35;;;14.82;;
37407;SDS011;24866;50.248;8.252;2022-10-13T09:49:24;29.27;;;16.33;;
37407;SDS011;24866;50.248;8.252;2022-10-13T09:52:05;29.65;;;16.30;;
37407;SDS011;24866;50.248;8.252;2022-10-13T09:54:43;26.63;;;15.55;;
37407;SDS011;24866;50.248;8.252;2022-10-13T09:59:49;21.35;;;12.52;;
37407;SDS011;24866;50.248;8.252;2022-10-13T10:02:26;25.63;;;15.05;;
37407;SDS011;24866;50.248;8.252;2022-10-13T10:05:00;22.38;;;13.32;;
37407;SDS011;24866;50.248;8.252;2022-10-13T10:07:37;27.40;;;15.27;;
37407;SDS011;24866;50.248;8.252;2022-10-13T10:10:09;28.50;;;13.75;;
37407;SDS011;24866;50.248;8.252;2022-10-13T10:12:47;23.08;;;14.85;;
37407;SDS011;24866;50.248;8.252;2022-10-13T10:15:19;22.58;;;14.05;;
37407;SDS011;24866;50.248;8.252;2022-10-13T10:17:53;37.90;;;16.50;;
37407;SDS011;24866;50.248;8.252;2022-10-13T10:20:36;25.85;;;17.02;;
37407;SDS011;24866;50.248;8.252;2022-10-13T10:23:20;28.75;;;16.83;;
37407;SDS011;24866;50.248;8.252;2022-10-13T10:25:56;26.73;;;15.45;;
37407;SDS011;24866;50.248;8.252;2022-10-13T10:28:41;29.95;;;15.73;;
37407;SDS011;24866;50.248;8.252;2022-10-13T10:31:33;24.58;;;13.93;;
37407;SDS011;24866;50.248;8.252;2022-10-13T10:34:24;22.65;;;15.00;;
37407;SDS011;24866;50.248;8.252;2022-10-13T10:37:24;25.63;;;15.18;;
37407;SDS011;24866;50.248;8.252;2022-10-13T10:40:07;26.95;;;14.40;;
37407;SDS011;24866;50.248;8.252;2022-10-13T10:42:51;23.92;;;14.70;;
37407;SDS011;24866;50.248;8.252;2022-10-13T10:45:30;27.60;;;12.23;;
37407;SDS011;24866;50.248;8.252;2022-10-13T10:48:05;22.50;;;14.65;;
37407;SDS011;24866;50.248;8.252;2022-10-13T10:50:41;20.55;;;12.07;;
37407;SDS011;24866;50.248;8.252;2022-10-13T10:53:12;22.63;;;12.63;;
37407;SDS011;24866;50.248;8.252;2022-10-13T10:55:51;19.70;;;11.95;;
37407;SDS011;24866;50.248;8.252;2022-10-13T10:58:25;19.33;;;11.70;;
37407;SDS011;24866;50.248;8.252;2022-10-13T11:01:02;23.27;;;12.27;;
37407;SDS011;24866;50.248;8.252;2022-10-13T11:03:37;21.65;;;10.50;;
37407;SDS011;24866;50.248;8.252;2022-10-13T11:06:31;15.32;;;9.13;;
37407;SDS011;24866;50.248;8.252;2022-10-13T11:09:02;19.35;;;9.15;;
37407;SDS011;24866;50.248;8.252;2022-10-13T11:11:39;12.82;;;7.60;;
37407;SDS011;24866;50.248;8.252;2022-10-13T11:17:09;14.35;;;6.97;;
37407;SDS011;24866;50.248;8.252;2022-10-13T11:19:47;13.88;;;6.53;;
37407;SDS011;24866;50.248;8.252;2022-10-13T11:22:19;12.40;;;7.05;;
37407;SDS011;24866;50.248;8.252;2022-10-13T11:24:58;12.65;;;6.95;;
37407;SDS011;24866;50.248;8.252;2022-10-13T11:27:53;13.43;;;6.28;;
37407;SDS011;24866;50.248;8.252;2022-10-13T11:45:37;15.85;;;9.27;;
37407;SDS011;24866;50.248;8.252;2022-10-13T11:51:37;19.55;;;10.80;;
37407;SDS011;24866;50.248;8.252;2022-10-13T11:54:20;20.52;;;10.52;;
37407;SDS011;24866;50.248;8.252;2022-10-13T11:56:59;15.82;;;7.97;;
37407;SDS011;24866;50.248;8.252;2022-10-13T11:59:30;18.20;;;9.13;;
37407;SDS011;24866;50.248;8.252;2022-10-13T12:02:05;14.80;;;8.23;;
37407;SDS011;24866;50.248;8.252;2022-10-13T12:04:41;21.10;;;8.27;;
37407;SDS011;24866;50.248;8.252;2022-10-13T12:07:13;17.83;;;9.63;;
37407;SDS011;24866;50.248;8.252;2022-10-13T12:09:47;14.60;;;9.43;;
37407;SDS011;24866;50.248;8.252;2022-10-13T12:12:19;16.20;;;9.35;;
37407;SDS011;24866;50.248;8.252;2022-10-13T12:14:53;14.75;;;9.73;;
37407;SDS011;24866;50.248;8.252;2022-10-13T12:17:27;19.58;;;10.32;;
37407;SDS011;24866;50.248;8.252;2022-10-13T12:20:00;15.20;;;9.70;;
37407;SDS011;24866;50.248;8.252;2022-10-13T12:22:32;14.10;;;7.47;;
37407;SDS011;24866;50.248;8.252;2022-10-13T12:25:03;14.05;;;6.63;;
37407;SDS011;24866;50.248;8.252;2022-10-13T12:27:39;13.05;;;6.30;;
37407;SDS011;24866;50.248;8.252;2022-10-13T12:30:20;10.73;;;5.55;;
37407;SDS011;24866;50.248;8.252;2022-10-13T12:32:53;10.13;;;5.00;;
37407;SDS011;24866;50.248;8.252;2022-10-13T12:35:26;12.95;;;6.75;;
37407;SDS011;24866;50.248;8.252;2022-10-13T12:37:59;14.10;;;7.00;;
37407;SDS011;24866;50.248;8.252;2022-10-13T12:40:33;10.30;;;6.20;;
37407;SDS011;24866;50.248;8.252;2022-10-13T12:43:04;14.02;;;7.22;;
37407;SDS011;24866;50.248;8.252;2022-10-13T12:45:39;13.85;;;6.35;;
37407;SDS011;24866;50.248;8.252;2022-10-13T12:48:28;15.38;;;7.05;;
37407;SDS011;24866;50.248;8.252;2022-10-13T12:51:15;13.65;;;6.60;;
37407;SDS011;24866;50.248;8.252;2022-10-13T12:53:48;15.40;;;7.18;;
37407;SDS011;24866;50.248;8.252;2022-10-13T12:56:24;18.02;;;7.45;;
37407;SDS011;24866;50.248;8.252;2022-10-13T12:58:56;14.82;;;7.90;;
37407;SDS011;24866;50.248;8.252;2022-10-13T13:01:29;12.18;;;7.40;;
37407;SDS011;24866;50.248;8.252;2022-10-13T13:04:01;16.08;;;9.65;;
37407;SDS011;24866;50.248;8.252;2022-10-13T13:06:51;16.23;;;8.48;;
37407;SDS011;24866;50.248;8.252;2022-10-13T13:09:23;14.82;;;9.38;;
37407;SDS011;24866;50.248;8.252;2022-10-13T13:14:50;16.20;;;9.38;;
37407;SDS011;24866;50.248;8.252;2022-10-13T13:17:30;16.52;;;9.15;;
37407;SDS011;24866;50.248;8.252;2022-10-13T13:20:00;15.35;;;9.48;;
37407;SDS011;24866;50.248;8.252;2022-10-13T13:22:47;19.35;;;10.43;;
37407;SDS011;24866;50.248;8.252;2022-10-13T13:25:18;19.25;;;10.25;;
37407;SDS011;24866;50.248;8.252;2022-10-13T13:27:49;18.88;;;10.27;;
37407;SDS011;24866;50.248;8.252;2022-10-13T13:30:20;24.23;;;12.13;;
37407;SDS011;24866;50.248;8.252;2022-10-13T13:32:53;17.63;;;9.77;;
37407;SDS011;24866;50.248;8.252;2022-10-13T13:35:23;18.95;;;11.20;;
37407;SDS011;24866;50.248;8.252;2022-10-13T13:37:54;17.40;;;10.52;;
37407;SDS011;24866;50.248;8.252;2022-10-13T13:40:26;23.10;;;10.88;;
37407;SDS011;24866;50.248;8.252;2022-10-13T13:42:57;20.88;;;12.25;;
37407;SDS011;24866;50.248;8.252;2022-10-13T13:45:27;20.95;;;9.60;;
37407;SDS011;24866;50.248;8.252;2022-10-13T13:47:59;18.92;;;9.68;;
37407;SDS011;24866;50.248;8.252;2022-10-13T13:50:30;20.48;;;12.05;;
37407;SDS011;24866;50.248;8.252;2022-10-13T13:53:03;17.05;;;10.95;;
37407;SDS011;24866;50.248;8.252;2022-10-13T13:55:34;20.92;;;10.93;;
37407;SDS011;24866;50.248;8.252;2022-10-13T13:58:05;19.88;;;12.25;;
37407;SDS011;24866;50.248;8.252;2022-10-13T14:00:35;22.55;;;13.23;;
37407;SDS011;24866;50.248;8.252;2022-10-13T14:03:07;20.10;;;12.15;;
37407;SDS011;24866;50.248;8.252;2022-10-13T14:05:37;23.77;;;12.82;;
37407;SDS011;24866;50.248;8.252;2022-10-13T14:08:08;26.20;;;13.20;;
37407;SDS011;24866;50.248;8.252;2022-10-13T14:10:38;21.20;;;12.63;;
37407;SDS011;24866;50.248;8.252;2022-10-13T14:13:10;21.10;;;11.43;;
37407;SDS011;24866;50.248;8.252;2022-10-13T14:15:41;21.90;;;13.40;;
37407;SDS011;24866;50.248;8.252;2022-10-13T14:18:12;20.75;;;12.57;;
37407;SDS011;24866;50.248;8.252;2022-10-13T14:20:43;21.08;;;12.15;;
37407;SDS011;24866;50.248;8.252;2022-10-13T14:23:14;24.85;;;13.35;;
37407;SDS011;24866;50.248;8.252;2022-10-13T14:25:46;26.55;;;12.15;;
37407;SDS011;24866;50.248;8.252;2022-10-13T14:28:16;23.73;;;12.93;;
37407;SDS011;24866;50.248;8.252;2022-10-13T14:30:47;20.38;;;12.32;;
37407;SDS011;24866;50.248;8.252;2022-10-13T14:33:20;18.33;;;11.98;;
37407;SDS011;24866;50.248;8.252;2022-10-13T14:35:57;30.30;;;14.10;;
37407;SDS011;24866;50.248;8.252;2022-10-13T14:38:29;26.63;;;13.80;;
37407;SDS011;24866;50.248;8.252;2022-10-13T14:41:01;22.90;;;13.02;;
37407;SDS011;24866;50.248;8.252;2022-10-13T14:46:04;21.73;;;12.45;;
37407;SDS011;24866;50.248;8.252;2022-10-13T14:48:36;20.92;;;12.00;;
37407;SDS011;24866;50.248;8.252;2022-10-13T14:51:07;25.08;;;13.20;;
37407;SDS011;24866;50.248;8.252;2022-10-13T14:53:39;22.73;;;13.63;;
37407;SDS011;24866;50.248;8.252;2022-10-13T14:56:12;20.92;;;10.68;;
37407;SDS011;24866;50.248;8.252;2022-10-13T14:58:45;18.90;;;10.98;;
37407;SDS011;24866;50.248;8.252;2022-10-13T15:01:16;18.27;;;11.43;;
37407;SDS011;24866;50.248;8.252;2022-10-13T15:03:49;22.73;;;11.40;;
37407;SDS011;24866;50.248;8.252;2022-10-13T15:06:20;16.27;;;11.27;;
37407;SDS011;24866;50.248;8.252;2022-10-13T15:08:51;16.73;;;10.43;;
37407;SDS011;24866;50.248;8.252;2022-10-13T15:11:22;19.25;;;10.15;;
37407;SDS011;24866;50.248;8.252;2022-10-13T15:13:53;16.67;;;10.35;;
37407;SDS011;24866;50.248;8.252;2022-10-13T15:16:24;17.23;;;10.68;;
37407;SDS011;24866;50.248;8.252;2022-10-13T15:18:58;18.08;;;10.55;;
37407;SDS011;24866;50.248;8.252;2022-10-13T15:21:28;16.08;;;9.73;;
37407;SDS011;24866;50.248;8.252;2022-10-13T15:23:58;19.30;;;10.35;;
37407;SDS011;24866;50.248;8.252;2022-10-13T15:26:28;16.52;;;10.70;;
37407;SDS011;24866;50.248;8.252;2022-10-13T15:28:59;19.55;;;10.77;;
37407;SDS011;24866;50.248;8.252;2022-10-13T15:31:29;18.48;;;10.45;;
37407;SDS011;24866;50.248;8.252;2022-10-13T15:34:02;20.70;;;11.55;;
37407;SDS011;24866;50.248;8.252;2022-10-13T15:36:32;19.52;;;11.15;;
37407;SDS011;24866;50.248;8.252;2022-10-13T15:39:02;21.30;;;10.25;;
37407;SDS011;24866;50.248;8.252;2022-10-13T15:41:33;14.15;;;9.75;;